createdAt,value
2019-02-06T00:01:49.289Z,-21073.71
2019-02-06T00:04:17.713Z,-21067.44
2019-02-06T00:06:46.001Z,-21096.96
2019-02-06T00:09:15.034Z,-21059.03
2019-02-06T00:11:43.296Z,-21035.62
2019-02-06T00:14:11.602Z,-21044.90
2019-02-06T00:16:39.897Z,-21063.45
2019-02-06T00:19:08.272Z,-21055.03
2019-02-06T00:21:37.203Z,-21052.75
2019-02-06T00:24:05.544Z,-21086.84
2019-02-06T00:26:33.919Z,-21081.99
2019-02-06T00:29:02.191Z,-21045.75
2019-02-06T00:31:30.545Z,-21056.32
2019-02-06T00:33:58.818Z,-21049.75
2019-02-06T00:36:27.100Z,-21052.46
2019-02-06T00:38:55.369Z,-21056.46
2019-02-06T00:41:23.676Z,-21061.45
2019-02-06T00:43:52.036Z,-21049.46
2019-02-06T00:46:20.288Z,-21048.46
2019-02-06T00:48:48.592Z,-21053.89
2019-02-06T00:51:17.122Z,-21059.60
2019-02-06T00:53:45.860Z,-21035.91
2019-02-06T00:56:14.150Z,-21025.19
2019-02-06T00:58:42.438Z,-21017.62
2019-02-06T01:01:10.771Z,-21030.62
2019-02-06T01:03:39.102Z,-21043.90
2019-02-06T01:06:07.467Z,-21042.76
2019-02-06T01:08:35.757Z,-21041.19
2019-02-06T01:11:04.272Z,-21030.48
2019-02-06T01:13:32.539Z,-21032.05
2019-02-06T01:16:00.825Z,-21034.62
2019-02-06T01:18:29.075Z,-21045.18
2019-02-06T01:20:57.358Z,-21035.19
2019-02-06T01:23:25.650Z,-21026.76
2019-02-06T01:25:53.924Z,-21028.76
2019-02-06T01:28:22.603Z,-21056.74
2019-02-06T01:30:52.650Z,-21037.76
2019-02-06T01:33:20.983Z,-21044.75
2019-02-06T01:35:50.307Z,-21036.48
2019-02-06T01:38:18.712Z,-21014.76
2019-02-06T01:40:46.972Z,-21046.46
2019-02-06T01:43:15.261Z,-21046.46
2019-02-06T01:45:43.602Z,-21040.19
2019-02-06T01:48:11.869Z,-21029.05
2019-02-06T01:50:40.145Z,-21025.19
2019-02-06T01:53:08.511Z,-21020.48
2019-02-06T01:55:36.782Z,-21046.61
2019-02-06T01:58:05.027Z,-21031.34
2019-02-06T02:00:33.370Z,-21038.90
2019-02-06T02:03:01.633Z,-21037.62
2019-02-06T02:05:29.985Z,-21038.62
2019-02-06T02:07:58.365Z,-21055.03
2019-02-06T02:10:26.608Z,-21055.60
2019-02-06T02:12:54.902Z,-21030.34
2019-02-06T02:15:23.165Z,-21047.89
2019-02-06T02:17:51.706Z,-21045.75
2019-02-06T02:20:24.564Z,-21045.32
2019-02-06T02:22:53.216Z,-21039.33
2019-02-06T02:25:21.874Z,-21023.19
2019-02-06T02:27:50.271Z,-21042.19
2019-02-06T02:30:26.080Z,-21046.18
2019-02-06T02:32:54.438Z,-21028.48
2019-02-06T02:35:23.098Z,-21035.62
2019-02-06T02:37:51.342Z,-21016.48
2019-02-06T02:40:19.858Z,-21025.76
2019-02-06T02:42:48.103Z,-20998.89
2019-02-06T02:45:18.328Z,-21015.19
2019-02-06T02:47:47.196Z,-21002.75
2019-02-06T02:50:15.555Z,-21009.32
2019-02-06T02:52:43.922Z,-21002.46
2019-02-06T02:55:13.238Z,-21034.05
2019-02-06T02:57:41.682Z,-21037.05
2019-02-06T03:00:22.293Z,-21023.48
2019-02-06T03:02:55.119Z,-21009.89
2019-02-06T03:05:24.945Z,-21017.91
2019-02-06T03:07:53.230Z,-21036.33
2019-02-06T03:10:21.489Z,-21031.62
2019-02-06T03:12:49.744Z,-21015.76
2019-02-06T03:15:18.027Z,-21001.03
2019-02-06T03:17:46.275Z,-21005.18
2019-02-06T03:20:14.807Z,-20996.32
2019-02-06T03:22:43.081Z,-20995.45
2019-02-06T03:25:13.468Z,-21009.89
2019-02-06T03:27:41.794Z,-21014.05
2019-02-06T03:30:13.340Z,-21004.18
2019-02-06T03:32:41.668Z,-20996.89
2019-02-06T03:35:09.993Z,-21016.48
2019-02-06T03:37:38.276Z,-20995.31
2019-02-06T03:40:12.417Z,-20998.61
2019-02-06T03:42:40.697Z,-21004.18
2019-02-06T03:45:11.299Z,-21005.61
2019-02-06T03:47:39.578Z,-20998.61
2019-02-06T03:50:11.060Z,-21008.18
2019-02-06T03:52:39.278Z,-21003.89
2019-02-06T03:55:09.313Z,-21027.34
2019-02-06T03:57:37.540Z,-21009.75
2019-02-06T04:00:08.975Z,-20999.46
2019-02-06T04:02:37.333Z,-21007.32
2019-02-06T04:05:07.748Z,-20987.02
2019-02-06T04:07:36.087Z,-21001.89
2019-02-06T04:10:08.035Z,-20989.31
2019-02-06T04:12:36.290Z,-20995.31
2019-02-06T04:15:06.713Z,-21003.75
2019-02-06T04:17:35.307Z,-20987.45
2019-02-06T04:20:05.120Z,-20982.44
2019-02-06T04:22:33.389Z,-20993.03
2019-02-06T04:25:01.697Z,-20993.60
2019-02-06T04:27:29.980Z,-21004.18
2019-02-06T04:29:58.231Z,-20987.73
2019-02-06T04:32:26.967Z,-20982.01
2019-02-06T04:34:55.269Z,-20988.02
2019-02-06T04:37:23.519Z,-20994.46
2019-02-06T04:39:51.782Z,-21006.75
2019-02-06T04:42:20.083Z,-20989.02
2019-02-06T04:44:48.361Z,-20999.32
2019-02-06T04:47:16.626Z,-20993.88
2019-02-06T04:49:45.108Z,-20991.02
2019-02-06T04:52:13.393Z,-20982.16
2019-02-06T04:54:41.680Z,-20996.89
2019-02-06T04:57:09.938Z,-20975.14
2019-02-06T04:59:38.315Z,-20971.56
2019-02-06T05:02:06.604Z,-20990.02
2019-02-06T05:04:34.922Z,-20980.15
2019-02-06T05:07:03.325Z,-20978.58
2019-02-06T05:09:31.576Z,-20983.58
2019-02-06T05:11:59.848Z,-21002.61
2019-02-06T05:14:28.100Z,-20998.18
2019-02-06T05:16:56.360Z,-20996.46
2019-02-06T05:19:24.647Z,-20987.88
2019-02-06T05:21:52.901Z,-20979.72
2019-02-06T05:24:21.182Z,-20995.31
2019-02-06T05:26:49.429Z,-20980.15
2019-02-06T05:29:17.711Z,-20995.74
2019-02-06T05:31:45.997Z,-20989.31
2019-02-06T05:34:14.288Z,-20997.75
2019-02-06T05:36:42.616Z,-21013.04
2019-02-06T05:39:10.896Z,-21027.19
2019-02-06T05:41:39.152Z,-21024.48
2019-02-06T05:44:07.438Z,-21020.05
2019-02-06T05:46:35.709Z,-21014.62
2019-02-06T05:49:04.057Z,-21033.34
2019-02-06T05:51:32.348Z,-21006.33
2019-02-06T05:54:00.632Z,-21009.89
2019-02-06T05:56:28.969Z,-21009.89
2019-02-06T05:58:57.314Z,-21004.46
2019-02-06T06:01:25.966Z,-21009.47
2019-02-06T06:03:54.345Z,-21012.18
2019-02-06T06:06:22.653Z,-21007.75
2019-02-06T06:08:50.938Z,-21005.90
2019-02-06T06:11:19.254Z,-21005.32
2019-02-06T06:13:47.517Z,-21008.04
2019-02-06T06:16:15.974Z,-21004.75
2019-02-06T06:18:44.267Z,-20986.73
2019-02-06T06:21:12.520Z,-20996.46
2019-02-06T06:23:40.809Z,-20989.88
2019-02-06T06:26:09.068Z,-21001.61
2019-02-06T06:28:37.341Z,-20988.16
2019-02-06T06:31:13.576Z,-21002.75
2019-02-06T06:33:41.890Z,-20998.75
2019-02-06T06:36:10.159Z,-20984.73
2019-02-06T06:38:38.490Z,-21001.46
2019-02-06T06:41:06.784Z,-21009.89
2019-02-06T06:43:35.043Z,-21014.33
2019-02-06T06:46:03.332Z,-20995.89
2019-02-06T06:48:32.046Z,-20997.18
2019-02-06T06:51:00.392Z,-20999.46
2019-02-06T06:53:28.675Z,-21020.48
2019-02-06T06:55:56.965Z,-21010.47
2019-02-06T06:58:25.239Z,-21007.61
2019-02-06T07:00:53.612Z,-21034.48
2019-02-06T07:03:21.890Z,-21003.04
2019-02-06T07:05:50.174Z,-21024.05
2019-02-06T07:08:18.449Z,-21026.05
2019-02-06T07:10:46.710Z,-21009.61
2019-02-06T07:13:14.997Z,-21008.61
2019-02-06T07:15:43.274Z,-21020.05
2019-02-06T07:18:11.572Z,-21010.89
2019-02-06T07:20:40.215Z,-20996.89
2019-02-06T07:23:08.587Z,-20995.89
2019-02-06T07:25:36.842Z,-20980.44
2019-02-06T07:28:05.198Z,-21003.18
2019-02-06T07:30:35.253Z,-21003.04
2019-02-06T07:33:03.741Z,-21005.90
2019-02-06T07:35:32.225Z,-21006.61
2019-02-06T07:38:02.613Z,-21019.62
2019-02-06T07:40:31.046Z,-21016.62
2019-02-06T07:42:59.324Z,-21012.90
2019-02-06T07:45:28.150Z,-20993.46
2019-02-06T07:47:59.439Z,-21003.18
2019-02-06T07:50:29.954Z,-21022.34
2019-02-06T07:52:58.876Z,-20995.74
2019-02-06T07:55:27.150Z,-21025.62
2019-02-06T07:57:55.478Z,-21012.18
2019-02-06T08:00:23.820Z,-21044.90
2019-02-06T08:02:53.521Z,-21018.05
2019-02-06T08:05:22.372Z,-21014.05
2019-02-06T08:07:51.309Z,-21019.77
2019-02-06T08:10:21.997Z,-21013.04
2019-02-06T08:12:50.322Z,-21023.19
2019-02-06T08:15:19.028Z,-21034.62
2019-02-06T08:17:47.793Z,-21023.48
2019-02-06T08:20:23.426Z,-21033.48
2019-02-06T08:22:52.072Z,-21016.19
2019-02-06T08:25:22.763Z,-21017.34
2019-02-06T08:27:51.231Z,-21033.48
2019-02-06T08:30:25.129Z,-21003.89
2019-02-06T08:32:53.846Z,-21042.19
2019-02-06T08:35:22.201Z,-21040.05
2019-02-06T08:37:51.402Z,-21010.47
2019-02-06T08:40:22.711Z,-21014.47
2019-02-06T08:42:59.410Z,-21022.05
2019-02-06T08:45:28.173Z,-21023.34
2019-02-06T08:47:56.461Z,-21050.75
2019-02-06T08:50:25.878Z,-21026.05
2019-02-06T08:52:54.309Z,-21025.05
2019-02-06T08:55:27.703Z,-21008.04
2019-02-06T08:57:56.023Z,-21031.34
2019-02-06T09:00:35.364Z,-21023.05
2019-02-06T09:03:04.699Z,-21018.77
2019-02-06T09:05:33.058Z,-21024.76
2019-02-06T09:08:01.338Z,-21034.62
2019-02-06T09:10:31.148Z,-21050.46
2019-02-06T09:13:00.166Z,-21026.33
2019-02-06T09:15:28.591Z,-21060.03
2019-02-06T09:17:57.370Z,-21063.16
2019-02-06T09:20:27.534Z,-21085.27
2019-02-06T09:22:56.126Z,-21090.54
2019-02-06T09:25:26.147Z,-21067.87
2019-02-06T09:27:54.545Z,-21084.55
2019-02-06T09:30:27.406Z,-21061.45
2019-02-06T09:32:57.724Z,-21064.30
2019-02-06T09:35:26.361Z,-21079.28
2019-02-06T09:37:54.701Z,-21078.57
2019-02-06T09:40:27.875Z,-21068.87
2019-02-06T09:42:56.226Z,-21080.70
2019-02-06T09:45:24.647Z,-21060.03
2019-02-06T09:47:52.914Z,-21054.60
2019-02-06T09:50:30.375Z,-21042.04
2019-02-06T09:52:58.656Z,-21072.15
2019-02-06T09:55:26.908Z,-21045.32
2019-02-06T09:57:55.242Z,-21071.58
2019-02-06T10:00:28.829Z,-21076.00
2019-02-06T10:02:57.126Z,-21050.61
2019-02-06T10:05:25.400Z,-21089.26
2019-02-06T10:07:53.675Z,-21065.59
2019-02-06T10:10:24.980Z,-21071.72
2019-02-06T10:12:53.309Z,-21075.86
2019-02-06T10:15:24.033Z,-21086.98
2019-02-06T10:17:53.016Z,-21078.14
2019-02-06T10:20:24.426Z,-21108.63
2019-02-06T10:22:52.777Z,-21116.04
2019-02-06T10:25:21.151Z,-21089.12
2019-02-06T10:27:49.451Z,-21096.53
2019-02-06T10:30:29.633Z,-21085.84
2019-02-06T10:32:58.466Z,-21100.52
2019-02-06T10:35:26.743Z,-21104.65
2019-02-06T10:37:55.004Z,-21111.20
2019-02-06T10:40:28.413Z,-21112.76
2019-02-06T10:42:56.773Z,-21126.57
2019-02-06T10:45:25.116Z,-21143.21
2019-02-06T10:47:53.961Z,-21102.65
2019-02-06T10:50:28.194Z,-21109.49
2019-02-06T10:52:56.647Z,-21114.18
2019-02-06T10:55:25.130Z,-21093.11
2019-02-06T10:57:53.488Z,-21109.77
2019-02-06T11:00:42.047Z,-21122.87
2019-02-06T11:03:10.675Z,-21135.11
2019-02-06T11:05:39.101Z,-21142.36
2019-02-06T11:08:07.476Z,-21098.95
2019-02-06T11:10:35.760Z,-21115.18
2019-02-06T11:13:04.916Z,-21098.23
2019-02-06T11:15:33.627Z,-21110.34
2019-02-06T11:18:01.901Z,-21114.47
2019-02-06T11:20:33.593Z,-21091.40
2019-02-06T11:23:02.045Z,-21075.86
2019-02-06T11:25:30.328Z,-21094.81
2019-02-06T11:27:58.639Z,-21079.56
2019-02-06T11:30:29.666Z,-21086.55
2019-02-06T11:32:58.014Z,-21097.10
2019-02-06T11:35:26.274Z,-21115.18
2019-02-06T11:37:54.610Z,-21106.78
2019-02-06T11:40:24.397Z,-21095.67
2019-02-06T11:42:53.291Z,-21109.35
2019-02-06T11:45:26.858Z,-21104.22
2019-02-06T11:47:55.215Z,-21134.54
2019-02-06T11:50:25.474Z,-21146.48
2019-02-06T11:52:54.018Z,-21132.54
2019-02-06T11:55:30.832Z,-21138.66
2019-02-06T11:57:59.190Z,-21153.45
2019-02-06T12:00:29.544Z,-21185.13
2019-02-06T12:02:57.815Z,-21187.12
2019-02-06T12:05:26.159Z,-21192.80
2019-02-06T12:07:54.499Z,-21197.34
2019-02-06T12:10:23.457Z,-21239.30
2019-02-06T12:12:51.728Z,-21226.69
2019-02-06T12:15:20.865Z,-21272.99
2019-02-06T12:17:49.203Z,-21242.70
2019-02-06T12:20:22.054Z,-21257.29
2019-02-06T12:22:50.404Z,-21270.16
2019-02-06T12:25:19.348Z,-21220.31
2019-02-06T12:27:50.811Z,-21230.52
2019-02-06T12:30:24.949Z,-21241.28
2019-02-06T12:32:53.252Z,-21238.45
2019-02-06T12:35:21.915Z,-21286.56
2019-02-06T12:37:50.197Z,-21307.47
2019-02-06T12:40:21.554Z,-21302.53
2019-02-06T12:42:49.030Z,-21283.17
2019-02-06T12:45:19.392Z,-21257.57
2019-02-06T12:47:48.031Z,-21279.21
2019-02-06T12:50:21.889Z,-21249.92
2019-02-06T12:52:50.166Z,-21255.30
2019-02-06T12:55:21.577Z,-21307.19
2019-02-06T12:57:49.928Z,-21304.50
2019-02-06T13:00:24.167Z,-21322.72
2019-02-06T13:02:56.361Z,-21333.30
2019-02-06T13:05:23.147Z,-21359.66
2019-02-06T13:07:51.492Z,-21354.30
2019-02-06T13:10:33.517Z,-21378.11
2019-02-06T13:12:54.213Z,-21366.84
2019-02-06T13:15:22.557Z,-21372.77
2019-02-06T13:17:51.335Z,-21358.25
2019-02-06T13:20:24.820Z,-21319.75
2019-02-06T13:22:53.244Z,-21375.44
2019-02-06T13:25:21.514Z,-21328.08
2019-02-06T13:27:50.221Z,-21354.30
2019-02-06T13:30:33.396Z,-21361.35
2019-02-06T13:33:01.733Z,-21297.16
2019-02-06T13:35:30.203Z,-21354.30
2019-02-06T13:37:58.467Z,-21312.55
2019-02-06T13:40:29.943Z,-21341.90
2019-02-06T13:42:58.686Z,-21321.59
2019-02-06T13:45:36.326Z,-21303.66
2019-02-06T13:48:05.743Z,-21301.68
2019-02-06T13:50:34.344Z,-21300.97
2019-02-06T13:53:02.629Z,-21346.84
2019-02-06T13:55:30.927Z,-21342.18
2019-02-06T13:57:59.229Z,-21338.94
2019-02-06T14:00:30.440Z,-21351.35
2019-02-06T14:02:58.864Z,-21374.03
2019-02-06T14:05:29.081Z,-21301.82
2019-02-06T14:08:02.962Z,-21337.39
2019-02-06T14:10:32.190Z,-21347.68
2019-02-06T14:13:01.021Z,-21325.12
2019-02-06T14:15:32.496Z,-21326.53
2019-02-06T14:18:01.013Z,-21326.53
2019-02-06T14:20:29.633Z,-21340.49
2019-02-06T14:23:09.641Z,-21358.95
2019-02-06T14:26:05.143Z,-21316.50
2019-02-06T14:28:56.393Z,-21342.89
2019-02-06T14:31:34.056Z,-21363.89
2019-02-06T14:34:11.403Z,-21307.89
2019-02-06T14:36:57.500Z,-21320.74
2019-02-06T14:39:29.244Z,-21288.12
2019-02-06T14:42:20.163Z,-21316.93
2019-02-06T14:45:03.608Z,-21269.73
2019-02-06T14:47:35.077Z,-21298.43
2019-02-06T14:50:15.386Z,-21270.58
2019-02-06T14:53:01.327Z,-21286.42
2019-02-06T14:55:55.730Z,-21279.21
2019-02-06T14:58:32.976Z,-21272.00
2019-02-06T15:01:07.181Z,-21240.15
2019-02-06T15:03:38.604Z,-21237.46
2019-02-06T15:06:15.981Z,-21236.04
2019-02-06T15:08:50.295Z,-21234.77
2019-02-06T15:11:24.636Z,-21239.44
2019-02-06T15:14:22.869Z,-21216.91
2019-02-06T15:17:10.897Z,-21247.52
2019-02-06T15:19:57.406Z,-21213.79
2019-02-06T15:22:45.257Z,-21231.79
2019-02-06T15:25:26.146Z,-21216.34
2019-02-06T15:28:25.044Z,-21235.05
2019-02-06T15:31:16.170Z,-21216.62
2019-02-06T15:33:53.600Z,-21205.28
2019-02-06T15:36:25.410Z,-21214.21
2019-02-06T15:39:19.366Z,-21210.25
2019-02-06T15:42:11.781Z,-21177.32
2019-02-06T15:45:15.074Z,-21209.54
2019-02-06T15:48:18.334Z,-21206.27
2019-02-06T15:51:07.214Z,-21222.86
2019-02-06T15:53:55.186Z,-21214.07
2019-02-06T15:56:35.318Z,-21190.39
2019-02-06T15:59:09.279Z,-21195.21
2019-02-06T16:01:58.745Z,-21187.12
2019-02-06T16:04:49.763Z,-21197.48
2019-02-06T16:07:48.540Z,-21180.44
2019-02-06T16:10:52.009Z,-21195.63
2019-02-06T16:13:45.963Z,-21205.42
2019-02-06T16:16:33.859Z,-21196.63
2019-02-06T16:19:14.131Z,-21206.84
2019-02-06T16:22:06.639Z,-21195.92
2019-02-06T16:24:53.269Z,-21192.23
2019-02-06T16:27:45.698Z,-21196.49
2019-02-06T16:30:37.797Z,-21170.36
2019-02-06T16:33:18.359Z,-21184.28
2019-02-06T16:35:58.430Z,-21186.55
2019-02-06T16:38:44.639Z,-21193.22
2019-02-06T16:41:36.694Z,-21161.84
2019-02-06T16:44:26.207Z,-21177.74
2019-02-06T16:47:12.637Z,-21146.34
2019-02-06T16:49:44.099Z,-21163.54
2019-02-06T16:52:27.108Z,-21174.05
2019-02-06T16:55:10.422Z,-21134.54
2019-02-06T16:57:50.667Z,-21186.70
2019-02-06T17:00:27.787Z,-21196.63
2019-02-06T17:03:23.504Z,-21187.83
2019-02-06T17:05:57.993Z,-21177.18
2019-02-06T17:08:47.752Z,-21164.82
2019-02-06T17:11:24.890Z,-21163.26
2019-02-06T17:13:58.916Z,-21170.93
2019-02-06T17:16:39.225Z,-21165.25
2019-02-06T17:19:13.497Z,-21169.51
2019-02-06T17:21:56.357Z,-21165.82
2019-02-06T17:24:50.640Z,-21151.04
2019-02-06T17:27:24.995Z,-21148.76
2019-02-06T17:30:13.884Z,-21156.44
2019-02-06T17:33:02.256Z,-21152.60
2019-02-06T17:35:45.562Z,-21157.43
2019-02-06T17:38:23.066Z,-21135.39
2019-02-06T17:41:06.558Z,-21123.72
2019-02-06T17:44:06.933Z,-21134.25
2019-02-06T17:46:47.159Z,-21138.66
2019-02-06T17:49:21.454Z,-21153.59
2019-02-06T17:52:12.592Z,-21142.93
2019-02-06T17:54:53.078Z,-21156.29
2019-02-06T17:57:21.440Z,-21123.72
2019-02-06T17:59:49.729Z,-21135.53
2019-02-06T18:02:18.433Z,-21157.29
2019-02-06T18:04:46.860Z,-21162.26
2019-02-06T18:07:15.215Z,-21145.21
2019-02-06T18:09:46.286Z,-21148.62
2019-02-06T18:12:14.760Z,-21166.10
2019-02-06T18:14:43.035Z,-21140.94
2019-02-06T18:17:11.354Z,-21154.16
2019-02-06T18:19:39.803Z,-21141.37
2019-02-06T18:22:08.417Z,-21137.38
2019-02-06T18:24:36.695Z,-21119.74
2019-02-06T18:27:05.657Z,-21133.97
2019-02-06T18:29:33.949Z,-21136.96
2019-02-06T18:32:02.243Z,-21126.71
2019-02-06T18:34:30.523Z,-21156.44
2019-02-06T18:36:59.236Z,-21150.47
2019-02-06T18:39:27.519Z,-21119.45
2019-02-06T18:41:55.819Z,-21123.44
2019-02-06T18:44:25.218Z,-21100.09
2019-02-06T18:46:54.294Z,-21098.23
2019-02-06T18:49:22.560Z,-21103.36
2019-02-06T18:51:50.810Z,-21110.63
2019-02-06T18:54:19.095Z,-21121.44
2019-02-06T18:56:47.642Z,-21136.10
2019-02-06T18:59:16.075Z,-21112.48
2019-02-06T19:01:44.355Z,-21110.05
2019-02-06T19:04:12.839Z,-21118.74
2019-02-06T19:06:41.114Z,-21128.56
2019-02-06T19:09:11.263Z,-21086.98
2019-02-06T19:11:39.511Z,-21098.52
2019-02-06T19:14:08.276Z,-21123.44
2019-02-06T19:16:36.923Z,-21090.97
2019-02-06T19:19:05.561Z,-21105.50
2019-02-06T19:21:33.823Z,-21118.60
2019-02-06T19:24:02.095Z,-21116.32
2019-02-06T19:26:30.445Z,-21106.50
2019-02-06T19:28:58.710Z,-21110.05
2019-02-06T19:31:27.071Z,-21108.92
2019-02-06T19:33:55.363Z,-21107.35
2019-02-06T19:36:23.916Z,-21112.34
2019-02-06T19:38:52.234Z,-21089.40
2019-02-06T19:41:20.496Z,-21105.64
2019-02-06T19:43:48.793Z,-21122.59
2019-02-06T19:46:17.123Z,-21130.98
2019-02-06T19:48:45.416Z,-21102.08
2019-02-06T19:51:13.742Z,-21110.20
2019-02-06T19:53:42.080Z,-21091.97
2019-02-06T19:56:10.572Z,-21087.55
2019-02-06T19:58:41.061Z,-21085.13
2019-02-06T20:01:08.998Z,-21086.27
2019-02-06T20:03:37.350Z,-21078.28
2019-02-06T20:06:06.008Z,-21094.53
2019-02-06T20:08:34.326Z,-21084.41
2019-02-06T20:11:02.699Z,-21099.23
2019-02-06T20:13:31.246Z,-21055.74
2019-02-06T20:15:59.545Z,-21081.99
2019-02-06T20:18:27.867Z,-21066.16
2019-02-06T20:20:56.176Z,-21085.41
2019-02-06T20:23:24.475Z,-21072.86
2019-02-06T20:25:52.967Z,-21052.75
2019-02-06T20:28:21.280Z,-21087.27
2019-02-06T20:30:49.756Z,-21087.13
2019-02-06T20:33:18.323Z,-21064.30
2019-02-06T20:35:46.623Z,-21055.89
2019-02-06T20:38:14.930Z,-21055.74
2019-02-06T20:40:44.402Z,-21080.56
2019-02-06T20:43:21.833Z,-21041.33
2019-02-06T20:45:42.867Z,-21076.28
2019-02-06T20:48:11.172Z,-21076.71
2019-02-06T20:50:39.827Z,-21077.85
2019-02-06T20:53:08.191Z,-21050.46
2019-02-06T20:55:36.576Z,-21067.44
2019-02-06T20:58:05.196Z,-21074.43
2019-02-06T21:00:42.723Z,-21068.44
2019-02-06T21:03:11.077Z,-21072.15
2019-02-06T21:05:39.431Z,-21048.04
2019-02-06T21:08:07.892Z,-21053.60
2019-02-06T21:10:36.730Z,-21056.89
2019-02-06T21:13:06.061Z,-21050.46
2019-02-06T21:15:34.482Z,-21041.76
2019-02-06T21:18:02.743Z,-21033.34
2019-02-06T21:20:31.087Z,-21041.47
2019-02-06T21:22:59.663Z,-21048.61
2019-02-06T21:25:28.429Z,-21065.16
2019-02-06T21:27:56.776Z,-21057.74
2019-02-06T21:30:30.490Z,-21046.32
2019-02-06T21:32:58.790Z,-21053.18
2019-02-06T21:35:27.222Z,-21063.02
2019-02-06T21:37:56.016Z,-21045.90
2019-02-06T21:40:27.089Z,-21040.62
2019-02-06T21:42:55.509Z,-21052.89
2019-02-06T21:45:23.802Z,-21043.04
2019-02-06T21:47:52.071Z,-21043.47
2019-02-06T21:50:23.182Z,-21029.19
2019-02-06T21:52:51.685Z,-21045.75
2019-02-06T21:55:24.137Z,-21024.62
2019-02-06T21:57:52.492Z,-21030.62
2019-02-06T22:00:22.718Z,-21034.05
2019-02-06T22:02:50.974Z,-21049.61
2019-02-06T22:05:19.605Z,-21036.76
2019-02-06T22:07:48.452Z,-21051.46
2019-02-06T22:10:19.643Z,-21060.46
2019-02-06T22:12:47.991Z,-21036.76
2019-02-06T22:15:30.437Z,-21055.60
2019-02-06T22:17:58.740Z,-21033.77
2019-02-06T22:20:27.484Z,-21061.03
2019-02-06T22:22:55.752Z,-21049.89
2019-02-06T22:25:24.115Z,-21042.19
2019-02-06T22:27:52.453Z,-21023.19
2019-02-06T22:30:28.243Z,-21033.62
2019-02-06T22:32:56.607Z,-21043.90
2019-02-06T22:35:25.702Z,-21044.33
2019-02-06T22:37:54.031Z,-21024.19
2019-02-06T22:40:24.108Z,-21064.30
2019-02-06T22:42:52.714Z,-21029.91
2019-02-06T22:45:23.697Z,-21041.62
2019-02-06T22:47:52.003Z,-21047.61
2019-02-06T22:50:25.446Z,-21034.19
2019-02-06T22:52:54.125Z,-21027.76
2019-02-06T22:55:22.467Z,-21032.20
2019-02-06T22:57:50.805Z,-21030.48
2019-02-06T23:00:25.214Z,-21031.05
2019-02-06T23:02:53.456Z,-21032.62
2019-02-06T23:05:21.987Z,-21031.62
2019-02-06T23:07:50.300Z,-21038.76
2019-02-06T23:10:18.631Z,-21028.05
2019-02-06T23:12:46.892Z,-21028.19
2019-02-06T23:15:15.556Z,-21031.19
2019-02-06T23:17:43.843Z,-21029.62
2019-02-06T23:20:12.967Z,-21013.62
2019-02-06T23:22:41.241Z,-21021.48
2019-02-06T23:25:09.689Z,-21034.91
2019-02-06T23:27:37.980Z,-21025.33
2019-02-06T23:30:09.500Z,-21028.76
2019-02-06T23:32:37.791Z,-21022.76
2019-02-06T23:35:06.494Z,-21018.05
2019-02-06T23:37:34.780Z,-21030.76
2019-02-06T23:40:04.791Z,-21035.05
2019-02-06T23:42:33.087Z,-21059.03
2019-02-06T23:45:01.369Z,-21074.86
2019-02-06T23:47:29.628Z,-21040.90
2019-02-06T23:49:58.389Z,-21066.30
2019-02-06T23:52:26.729Z,-21044.18
2019-02-06T23:54:55.027Z,-21023.34
2019-02-06T23:57:23.416Z,-21038.05
2019-02-06T23:59:51.651Z,-21026.05
